Time;durP1;ratioP1;P1;durP2;ratioP2;P2;SDS_P1;SDS_P2;PMS_P1;PMS_P2;Temp;Humidity;BMP_temperature;BMP_pressure;BME280_temperature;BME280_humidity;BME280_pressure;Samples;Min_cycle;Max_cycle;Signal;HPM_P1;HPM_P2
2021/10/16 00:02:15;;;;;;;7.20;1.47;;;9.80;99.90;;;;;;4993432;28;20265;-66
2021/10/16 00:04:43;;;;;;;8.83;2.00;;;9.90;99.90;;;;;;4990261;28;20849;-66
2021/10/16 00:07:12;;;;;;;6.67;1.60;;;9.90;99.90;;;;;;4994103;28;20295;-66
2021/10/16 00:09:40;;;;;;;10.33;2.17;;;9.90;99.90;;;;;;4994991;28;20281;-66
2021/10/16 00:12:09;;;;;;;7.50;2.07;;;9.90;99.90;;;;;;4992657;28;20241;-66
2021/10/16 00:14:37;;;;;;;6.73;1.83;;;9.90;99.90;;;;;;4994592;28;20241;-66
2021/10/16 00:17:05;;;;;;;6.63;1.60;;;10.00;99.90;;;;;;4996929;28;20245;-66
2021/10/16 00:19:34;;;;;;;5.07;1.60;;;9.90;99.90;;;;;;4989460;28;20265;-66
2021/10/16 00:22:02;;;;;;;6.10;1.90;;;10.00;99.90;;;;;;4991796;28;20242;-66
2021/10/16 00:24:31;;;;;;;6.60;1.60;;;9.90;99.90;;;;;;4983737;28;20301;-66
2021/10/16 00:26:59;;;;;;;3.07;1.60;;;10.00;99.90;;;;;;4994258;28;20250;-66
2021/10/16 00:29:28;;;;;;;5.97;1.90;;;10.00;99.90;;;;;;4991597;28;20249;-66
2021/10/16 00:31:58;;;;;;;8.83;2.17;;;10.00;99.90;;;;;;4992100;28;20260;-66
2021/10/16 00:34:27;;;;;;;7.07;1.67;;;10.00;99.90;;;;;;4987496;28;20488;-67
2021/10/16 00:36:55;;;;;;;5.90;1.90;;;9.90;99.90;;;;;;4990152;28;20725;-66
2021/10/16 00:39:23;;;;;;;7.50;1.77;;;9.90;99.90;;;;;;4970996;28;20325;-66
2021/10/16 00:41:52;;;;;;;6.63;1.83;;;9.90;99.90;;;;;;4972694;28;20642;-66
2021/10/16 00:44:23;;;;;;;5.83;1.80;;;9.80;99.90;;;;;;4993491;28;20752;-66
2021/10/16 00:46:53;;;;;;;8.37;1.67;;;9.80;99.90;;;;;;4994387;28;20320;-66
2021/10/16 00:49:22;;;;;;;4.37;1.60;;;9.80;99.90;;;;;;4990975;28;20609;-66
2021/10/16 00:51:50;;;;;;;7.90;2.10;;;9.90;99.90;;;;;;4992945;28;20233;-66
2021/10/16 00:54:21;;;;;;;8.27;1.63;;;9.80;99.90;;;;;;4993958;28;20617;-66
2021/10/16 00:56:50;;;;;;;5.47;1.60;;;9.80;99.90;;;;;;4981777;28;20997;-66
2021/10/16 00:59:19;;;;;;;6.70;1.87;;;9.80;99.90;;;;;;4987067;28;20759;-66
2021/10/16 01:01:48;;;;;;;8.97;2.30;;;9.90;99.90;;;;;;4973697;28;20233;-66
2021/10/16 01:04:18;;;;;;;6.93;1.70;;;9.80;99.90;;;;;;4977079;28;20240;-66
2021/10/16 01:06:55;;;;;;;5.87;1.90;;;9.80;99.90;;;;;;4982179;28;20902;-66
2021/10/16 01:09:23;;;;;;;5.00;1.93;;;9.80;99.90;;;;;;4987372;28;20657;-66
2021/10/16 01:11:53;;;;;;;8.97;2.30;;;9.90;99.90;;;;;;4996182;28;20679;-67
2021/10/16 01:14:22;;;;;;;7.70;2.10;;;9.90;99.90;;;;;;4988407;28;20817;-66
2021/10/16 01:16:52;;;;;;;6.30;2.03;;;10.00;99.90;;;;;;4992895;28;20237;-66
2021/10/16 01:19:23;;;;;;;5.73;1.97;;;9.90;99.90;;;;;;4994228;28;20629;-66
2021/10/16 01:21:55;;;;;;;5.23;2.17;;;10.00;99.90;;;;;;4984082;28;20245;-66
2021/10/16 01:24:23;;;;;;;8.60;2.47;;;9.90;99.90;;;;;;4990778;28;20254;-66
2021/10/16 01:26:52;;;;;;;6.50;2.50;;;10.00;99.90;;;;;;4996482;28;20244;-66
2021/10/16 01:29:23;;;;;;;6.50;2.73;;;9.90;99.90;;;;;;4979302;28;20640;-66
2021/10/16 01:31:51;;;;;;;7.63;2.80;;;10.00;99.90;;;;;;5000234;28;20233;-66
2021/10/16 01:34:20;;;;;;;5.80;2.50;;;10.00;99.90;;;;;;4994384;28;20257;-66
2021/10/16 01:36:49;;;;;;;9.87;2.90;;;10.00;99.90;;;;;;4975579;28;20296;-66
2021/10/16 01:39:23;;;;;;;4.87;2.70;;;10.00;99.90;;;;;;4986868;28;20324;-66
2021/10/16 01:41:53;;;;;;;8.43;2.60;;;10.00;99.90;;;;;;4977736;28;20284;-66
2021/10/16 01:44:21;;;;;;;8.77;3.30;;;9.90;99.90;;;;;;5001548;28;20374;-66
2021/10/16 01:46:50;;;;;;;6.80;2.70;;;9.90;99.90;;;;;;4980991;28;20645;-67
2021/10/16 01:49:22;;;;;;;7.60;2.97;;;9.90;99.90;;;;;;4991290;28;20238;-66
2021/10/16 01:51:55;;;;;;;5.17;2.77;;;9.90;99.90;;;;;;4975295;28;20230;-66
2021/10/16 01:54:31;;;;;;;5.47;2.73;;;9.80;99.90;;;;;;4969933;28;20579;-66
2021/10/16 01:56:59;;;;;;;11.37;2.87;;;9.80;99.90;;;;;;4978882;28;20296;-66
2021/10/16 01:59:29;;;;;;;7.07;2.70;;;9.90;99.90;;;;;;4975872;28;20342;-66
2021/10/16 02:02:23;;;;;;;6.90;2.63;;;9.90;99.90;;;;;;4998406;28;20277;-66
2021/10/16 02:05:10;;;;;;;7.37;2.83;;;9.80;99.90;;;;;;4993647;28;20277;-66
2021/10/16 02:07:39;;;;;;;4.17;2.50;;;9.80;99.90;;;;;;4986972;28;20309;-66
2021/10/16 02:10:09;;;;;;;6.90;2.43;;;9.80;99.90;;;;;;4993275;28;20250;-66
2021/10/16 02:12:38;;;;;;;6.53;2.77;;;9.90;99.90;;;;;;4972850;28;20234;-66
2021/10/16 02:15:08;;;;;;;7.07;2.47;;;9.80;99.90;;;;;;4976957;28;20309;-66
2021/10/16 02:17:43;;;;;;;11.97;3.50;;;9.90;99.90;;;;;;4981195;28;20261;-66
2021/10/16 02:20:12;;;;;;;5.97;2.27;;;9.80;99.90;;;;;;4989476;28;20236;-66
2021/10/16 02:22:40;;;;;;;9.20;2.47;;;9.80;99.90;;;;;;4973743;28;20226;-66
2021/10/16 02:25:12;;;;;;;6.23;2.20;;;9.80;99.90;;;;;;4975151;28;20258;-66
2021/10/16 02:27:42;;;;;;;4.53;2.10;;;9.80;99.90;;;;;;4973028;28;20222;-67
2021/10/16 02:30:10;;;;;;;4.90;1.83;;;9.80;99.90;;;;;;4973449;28;20241;-66
2021/10/16 02:32:39;;;;;;;8.37;2.40;;;9.80;99.90;;;;;;4976759;28;20274;-66
2021/10/16 02:35:08;;;;;;;5.67;2.13;;;9.80;99.90;;;;;;4974333;28;20285;-66
2021/10/16 02:37:37;;;;;;;5.90;1.97;;;9.70;99.90;;;;;;4975988;28;20230;-66
2021/10/16 02:40:06;;;;;;;5.20;1.67;;;9.70;99.90;;;;;;4970185;28;20463;-66
2021/10/16 02:42:36;;;;;;;5.43;1.60;;;9.70;99.90;;;;;;4978109;28;20250;-66
2021/10/16 02:45:05;;;;;;;5.73;1.70;;;9.70;99.90;;;;;;4977176;28;20241;-67
2021/10/16 02:47:34;;;;;;;4.93;1.40;;;9.60;99.90;;;;;;4973369;28;20292;-66
2021/10/16 02:50:02;;;;;;;7.63;1.77;;;9.60;99.90;;;;;;4972471;28;20234;-66
2021/10/16 02:52:30;;;;;;;5.87;2.00;;;9.60;99.90;;;;;;4969766;28;20254;-66
2021/10/16 02:54:59;;;;;;;6.37;1.60;;;9.60;99.90;;;;;;4980222;28;20250;-66
2021/10/16 02:57:43;;;;;;;5.00;1.50;;;9.60;99.90;;;;;;4982049;28;20230;-65
2021/10/16 03:00:11;;;;;;;6.33;1.53;;;9.60;99.90;;;;;;4976210;28;20735;-66
2021/10/16 03:02:41;;;;;;;7.20;1.77;;;9.60;99.90;;;;;;4981506;28;20254;-66
2021/10/16 03:05:11;;;;;;;8.23;1.87;;;9.60;99.90;;;;;;4970333;28;20234;-66
2021/10/16 03:07:39;;;;;;;5.70;1.70;;;9.60;99.90;;;;;;4962624;28;20238;-67
2021/10/16 03:10:08;;;;;;;5.70;1.47;;;9.60;99.90;;;;;;4979625;28;20325;-66
2021/10/16 03:12:36;;;;;;;8.10;1.90;;;9.60;99.90;;;;;;4977623;28;20234;-66
2021/10/16 03:15:06;;;;;;;6.50;1.77;;;9.60;99.90;;;;;;4980065;28;20246;-66
2021/10/16 03:17:37;;;;;;;4.50;1.20;;;9.60;99.90;;;;;;4975210;28;20223;-66
2021/10/16 03:20:07;;;;;;;5.83;1.50;;;9.70;99.90;;;;;;4995040;28;20229;-66
2021/10/16 03:22:36;;;;;;;5.37;1.60;;;9.70;99.90;;;;;;4973861;28;20243;-66
2021/10/16 03:25:05;;;;;;;4.70;1.33;;;9.60;99.90;;;;;;4994233;28;20233;-66
2021/10/16 03:27:34;;;;;;;6.27;1.73;;;9.60;99.90;;;;;;4968566;28;20226;-66
2021/10/16 03:30:02;;;;;;;7.40;1.50;;;9.50;99.90;;;;;;4987419;28;20758;-66
2021/10/16 03:32:33;;;;;;;5.57;1.40;;;9.50;99.90;;;;;;4969688;28;20227;-66
2021/10/16 03:35:01;;;;;;;2.87;1.00;;;9.40;99.90;;;;;;4978300;28;20293;-66
2021/10/16 03:37:29;;;;;;;4.07;1.40;;;9.40;99.90;;;;;;4974670;28;20759;-66
2021/10/16 03:39:57;;;;;;;4.73;1.53;;;9.40;99.90;;;;;;4974619;28;20234;-66
2021/10/16 03:42:25;;;;;;;4.53;1.60;;;9.40;99.90;;;;;;4976952;28;20234;-66
2021/10/16 03:45:04;;;;;;;4.80;1.50;;;9.40;99.90;;;;;;4991654;28;20234;-66
2021/10/16 03:47:34;;;;;;;6.50;1.53;;;9.40;99.90;;;;;;4973497;28;20245;-66
2021/10/16 03:50:02;;;;;;;5.57;1.67;;;9.40;99.90;;;;;;4973628;28;20262;-66
2021/10/16 03:52:30;;;;;;;6.17;1.73;;;9.50;99.90;;;;;;4992104;28;20234;-66
2021/10/16 03:55:00;;;;;;;7.60;1.57;;;9.40;99.90;;;;;;4976689;28;20238;-66
2021/10/16 03:57:28;;;;;;;5.13;1.57;;;9.40;99.90;;;;;;4975558;28;20253;-66
2021/10/16 03:59:56;;;;;;;5.63;1.50;;;9.40;99.90;;;;;;4978036;28;20241;-67
2021/10/16 04:02:26;;;;;;;3.47;1.37;;;9.30;99.90;;;;;;4971300;28;20777;-66
2021/10/16 04:04:56;;;;;;;5.80;2.13;;;9.30;99.90;;;;;;4975382;28;20710;-66
2021/10/16 04:07:24;;;;;;;4.60;1.73;;;9.30;99.90;;;;;;4969617;28;20269;-66
2021/10/16 04:09:54;;;;;;;5.57;1.77;;;9.20;99.90;;;;;;4977473;28;20240;-66
2021/10/16 04:12:22;;;;;;;6.60;1.60;;;9.20;99.90;;;;;;4983840;28;20243;-66
2021/10/16 04:14:50;;;;;;;6.27;1.63;;;9.10;99.90;;;;;;4985514;28;20245;-67
2021/10/16 04:17:23;;;;;;;5.57;1.73;;;9.20;99.90;;;;;;4984178;28;20289;-66
2021/10/16 04:19:51;;;;;;;5.83;1.83;;;9.10;99.90;;;;;;4985536;28;20234;-66
2021/10/16 04:22:21;;;;;;;4.07;1.40;;;9.10;99.90;;;;;;4970161;28;20647;-66
2021/10/16 04:24:50;;;;;;;6.50;1.90;;;9.10;99.90;;;;;;4981922;28;20318;-66
2021/10/16 04:27:18;;;;;;;6.60;1.93;;;9.00;99.90;;;;;;4967990;28;20259;-66
2021/10/16 04:29:56;;;;;;;6.80;1.93;;;9.10;99.90;;;;;;4972483;28;20268;-66
2021/10/16 04:32:34;;;;;;;5.77;1.93;;;9.10;99.90;;;;;;4964941;28;20698;-66
2021/10/16 04:35:03;;;;;;;7.17;2.13;;;9.10;99.90;;;;;;4971790;28;20241;-66
2021/10/16 04:37:33;;;;;;;5.37;1.80;;;9.10;99.90;;;;;;4980038;28;20317;-66
2021/10/16 04:40:08;;;;;;;5.93;1.87;;;9.10;99.90;;;;;;4981071;28;20646;-66
2021/10/16 04:42:37;;;;;;;6.23;2.20;;;9.10;99.90;;;;;;4968916;28;20237;-66
2021/10/16 04:45:07;;;;;;;6.10;1.90;;;9.10;99.90;;;;;;4970389;28;20245;-66
2021/10/16 04:47:36;;;;;;;5.80;2.00;;;9.10;99.90;;;;;;4974087;28;20244;-66
2021/10/16 04:50:05;;;;;;;7.30;1.90;;;9.10;99.90;;;;;;4974431;28;20757;-67
2021/10/16 04:52:36;;;;;;;4.90;1.90;;;9.10;99.90;;;;;;4989435;28;20282;-66
2021/10/16 04:55:09;;;;;;;5.73;2.10;;;9.10;99.90;;;;;;4974440;28;20233;-66
2021/10/16 04:57:37;;;;;;;5.50;2.03;;;9.10;99.90;;;;;;4969865;28;20227;-66
2021/10/16 05:00:07;;;;;;;6.77;2.17;;;9.10;99.90;;;;;;4972143;28;20325;-66
2021/10/16 05:02:43;;;;;;;4.23;1.50;;;9.10;99.90;;;;;;4984495;28;20312;-66
2021/10/16 05:05:11;;;;;;;6.57;2.00;;;9.10;99.90;;;;;;4975676;28;20332;-66
2021/10/16 05:07:43;;;;;;;6.30;1.93;;;9.10;99.90;;;;;;4973714;28;20231;-67
2021/10/16 05:10:11;;;;;;;4.87;2.10;;;9.10;99.90;;;;;;4972744;28;20238;-66
2021/10/16 05:12:40;;;;;;;5.40;2.07;;;9.00;99.90;;;;;;4990422;28;20230;-66
2021/10/16 05:15:11;;;;;;;9.27;2.00;;;9.00;99.90;;;;;;4972400;28;20237;-66
2021/10/16 05:17:40;;;;;;;5.87;2.30;;;8.90;99.90;;;;;;4987661;28;20319;-66
2021/10/16 05:20:16;;;;;;;5.30;2.37;;;8.90;99.90;;;;;;4984308;28;20234;-66
2021/10/16 05:22:52;;;;;;;4.27;2.23;;;8.90;99.90;;;;;;4973462;28;20241;-66
2021/10/16 05:25:20;;;;;;;6.83;2.40;;;8.90;99.90;;;;;;4974940;28;20242;-66
2021/10/16 05:27:49;;;;;;;8.33;2.23;;;8.90;99.90;;;;;;4976907;28;20733;-66
2021/10/16 05:30:18;;;;;;;8.03;2.77;;;8.90;99.90;;;;;;4985957;28;20744;-66
2021/10/16 05:32:48;;;;;;;6.80;2.07;;;8.80;99.90;;;;;;4986683;28;20241;-66
2021/10/16 05:35:19;;;;;;;6.27;2.10;;;8.80;99.90;;;;;;4962891;28;20238;-66
2021/10/16 05:37:47;;;;;;;7.80;2.23;;;8.80;99.90;;;;;;4969786;28;20258;-66
2021/10/16 05:40:18;;;;;;;5.93;2.10;;;8.70;99.90;;;;;;4989284;28;20717;-66
2021/10/16 05:42:46;;;;;;;9.67;2.47;;;8.70;99.90;;;;;;4974332;28;20733;-66
2021/10/16 05:45:15;;;;;;;6.03;2.10;;;8.70;99.90;;;;;;4991019;28;20641;-66
2021/10/16 05:47:48;;;;;;;5.87;1.90;;;8.70;99.90;;;;;;4974442;28;20317;-66
2021/10/16 05:50:16;;;;;;;3.30;1.90;;;8.70;99.90;;;;;;4971969;28;20299;-66
2021/10/16 05:52:45;;;;;;;7.10;1.90;;;8.70;99.90;;;;;;4976784;28;20234;-66
2021/10/16 05:55:13;;;;;;;4.10;1.90;;;8.70;99.90;;;;;;4988242;28;20597;-66
2021/10/16 05:57:44;;;;;;;5.87;1.80;;;8.70;99.90;;;;;;4981340;28;20242;-66
2021/10/16 06:00:13;;;;;;;5.23;2.00;;;8.70;99.90;;;;;;4985377;28;20246;-66
2021/10/16 06:02:48;;;;;;;3.67;1.87;;;8.70;99.90;;;;;;4971621;28;20718;-66
2021/10/16 06:05:24;;;;;;;6.03;1.80;;;8.70;99.90;;;;;;4983513;28;20710;-66
2021/10/16 06:07:53;;;;;;;6.83;2.00;;;8.80;99.90;;;;;;4972684;28;20328;-66
2021/10/16 06:10:26;;;;;;;9.13;1.93;;;8.80;99.90;;;;;;4988292;28;20237;-66
2021/10/16 06:12:58;;;;;;;4.07;1.43;;;8.80;99.90;;;;;;4976404;28;20698;-66
2021/10/16 06:15:27;;;;;;;7.10;2.13;;;8.80;99.90;;;;;;4985924;28;20249;-66
2021/10/16 06:17:55;;;;;;;6.57;1.67;;;8.80;99.90;;;;;;4975597;28;20241;-66
2021/10/16 06:20:29;;;;;;;5.63;2.10;;;8.80;99.90;;;;;;4971690;28;20261;-66
2021/10/16 06:22:58;;;;;;;5.13;1.83;;;8.90;99.90;;;;;;4966114;28;20234;-66
2021/10/16 06:25:27;;;;;;;3.60;1.80;;;9.00;99.90;;;;;;4977845;28;20313;-65
2021/10/16 06:27:55;;;;;;;9.93;2.23;;;9.00;99.90;;;;;;4974656;28;20644;-66
2021/10/16 06:30:25;;;;;;;9.70;2.07;;;9.20;99.90;;;;;;4970975;28;20277;-66
2021/10/16 06:32:53;;;;;;;7.33;2.03;;;9.20;99.90;;;;;;4970043;28;20250;-66
2021/10/16 06:35:21;;;;;;;6.20;2.20;;;9.10;99.90;;;;;;4970894;28;20253;-66
2021/10/16 06:37:51;;;;;;;4.87;1.80;;;9.10;99.90;;;;;;4964289;28;20654;-66
2021/10/16 06:40:20;;;;;;;4.40;1.90;;;9.10;99.90;;;;;;4987796;28;20253;-66
2021/10/16 06:42:55;;;;;;;4.10;1.90;;;9.20;99.90;;;;;;4969370;28;20311;-66
2021/10/16 06:45:28;;;;;;;6.77;2.07;;;9.20;99.90;;;;;;4975359;28;20536;-66
2021/10/16 06:48:25;;;;;;;4.90;2.30;;;9.20;99.90;;;;;;4962658;28;20239;-66
2021/10/16 06:50:58;;;;;;;5.63;2.30;;;9.20;99.90;;;;;;4971370;28;20314;-66
2021/10/16 06:53:26;;;;;;;6.33;1.90;;;9.20;99.90;;;;;;4973222;28;20286;-66
2021/10/16 06:55:54;;;;;;;7.10;2.50;;;9.20;99.90;;;;;;4997268;28;20253;-66
2021/10/16 06:58:23;;;;;;;4.70;2.20;;;9.30;99.90;;;;;;4975121;28;21016;-66
2021/10/16 07:00:53;;;;;;;6.20;2.40;;;9.30;99.90;;;;;;4970642;28;20786;-66
2021/10/16 07:03:45;;;;;;;7.10;2.30;;;9.30;99.90;;;;;;4971554;28;20237;-66
2021/10/16 07:06:14;;;;;;;6.07;2.20;;;9.30;99.90;;;;;;4987896;28;20234;-66
2021/10/16 07:08:43;;;;;;;3.73;2.13;;;9.30;99.90;;;;;;4975092;28;20233;-66
2021/10/16 07:11:11;;;;;;;7.37;2.27;;;9.30;99.90;;;;;;4988264;28;20266;-66
2021/10/16 07:13:40;;;;;;;8.63;2.40;;;9.30;99.90;;;;;;4995095;28;20234;-66
2021/10/16 07:16:11;;;;;;;7.47;2.30;;;9.40;99.90;;;;;;4982367;28;20882;-66
2021/10/16 07:18:43;;;;;;;11.10;2.87;;;9.50;99.90;;;;;;4995186;28;20491;-66
2021/10/16 07:21:11;;;;;;;4.93;2.27;;;9.50;99.90;;;;;;4990294;28;20673;-66
2021/10/16 07:23:59;;;;;;;5.20;2.50;;;9.50;99.90;;;;;;4994846;28;20249;-66
2021/10/16 07:26:29;;;;;;;5.00;2.20;;;9.50;99.90;;;;;;4989652;28;20725;-66
2021/10/16 07:28:57;;;;;;;8.60;2.70;;;9.50;99.90;;;;;;4997485;28;20239;-66
2021/10/16 07:31:28;;;;;;;8.00;2.73;;;9.50;99.90;;;;;;4987149;28;20240;-66
2021/10/16 07:33:59;;;;;;;5.57;2.07;;;9.50;99.90;;;;;;4996066;28;20240;-66
2021/10/16 07:36:32;;;;;;;8.07;2.30;;;9.60;99.90;;;;;;4990744;28;20241;-66
2021/10/16 07:39:00;;;;;;;7.53;2.17;;;9.60;99.90;;;;;;4993420;28;20271;-66
2021/10/16 07:41:28;;;;;;;6.20;2.20;;;9.70;99.90;;;;;;4995235;28;20235;-65
2021/10/16 07:43:56;;;;;;;4.70;2.17;;;9.80;99.90;;;;;;4996455;28;20237;-65
2021/10/16 07:46:26;;;;;;;4.43;1.97;;;9.80;99.90;;;;;;4990340;28;20242;-66
2021/10/16 07:48:54;;;;;;;4.60;2.20;;;9.90;99.90;;;;;;4984912;28;20268;-66
2021/10/16 07:51:22;;;;;;;5.07;2.30;;;9.90;99.90;;;;;;4989947;28;20234;-66
2021/10/16 07:53:50;;;;;;;8.80;2.80;;;9.90;99.90;;;;;;4994856;28;20321;-66
2021/10/16 07:56:18;;;;;;;7.07;2.53;;;10.00;99.90;;;;;;4994507;28;20238;-66
2021/10/16 07:58:48;;;;;;;8.30;2.57;;;10.10;99.90;;;;;;4988290;28;20263;-66
2021/10/16 08:01:16;;;;;;;6.00;2.43;;;10.10;99.90;;;;;;4992038;28;20238;-66
2021/10/16 08:03:46;;;;;;;9.43;2.70;;;10.10;99.90;;;;;;4992528;28;20233;-65
2021/10/16 08:06:14;;;;;;;7.13;2.23;;;10.10;99.90;;;;;;4991544;28;20247;-66
2021/10/16 08:08:43;;;;;;;5.50;2.20;;;10.10;99.90;;;;;;4992629;28;20633;-66
2021/10/16 08:11:31;;;;;;;7.50;2.60;;;10.10;99.90;;;;;;4986454;28;20336;-66
2021/10/16 08:13:59;;;;;;;5.30;1.90;;;10.20;99.90;;;;;;4992491;28;20239;-66
2021/10/16 08:16:27;;;;;;;9.90;2.57;;;10.20;99.90;;;;;;4995905;28;20238;-66
2021/10/16 08:18:58;;;;;;;5.27;2.00;;;10.20;99.90;;;;;;4998696;28;20325;-66
2021/10/16 08:21:26;;;;;;;4.07;1.93;;;10.30;99.90;;;;;;4993315;28;20582;-66
2021/10/16 08:23:54;;;;;;;6.73;1.87;;;10.40;99.90;;;;;;4982465;28;20254;-65
2021/10/16 08:26:22;;;;;;;6.03;2.07;;;10.60;99.90;;;;;;4995462;28;20338;-65
2021/10/16 08:28:54;;;;;;;4.72;1.83;;;10.70;99.90;;;;;;2440504;28;10022819;-65
2021/10/16 08:31:22;;;;;;;7.30;2.07;;;10.80;99.90;;;;;;3614274;28;10001143;-66
2021/10/16 08:33:50;;;;;;;6.80;2.00;;;10.90;99.90;;;;;;4996168;28;20509;-66
2021/10/16 08:36:20;;;;;;;5.33;2.07;;;11.00;99.90;;;;;;4993993;28;20260;-66
2021/10/16 08:38:50;;;;;;;5.57;2.03;;;11.00;99.90;;;;;;4990171;28;20273;-66
2021/10/16 08:41:18;;;;;;;5.80;2.10;;;11.00;99.90;;;;;;4996073;28;20245;-65
2021/10/16 08:43:46;;;;;;;7.43;2.13;;;11.10;99.90;;;;;;4989285;28;20253;-65
2021/10/16 08:46:16;;;;;;;5.87;2.23;;;11.10;99.90;;;;;;4990818;28;20773;-65
2021/10/16 08:48:45;;;;;;;6.77;2.03;;;11.30;99.90;;;;;;4989287;28;20602;-65
2021/10/16 08:51:13;;;;;;;8.50;2.37;;;11.30;99.90;;;;;;4987446;28;20332;-66
2021/10/16 08:53:43;;;;;;;6.43;2.20;;;11.40;99.90;;;;;;4986626;28;20253;-66
2021/10/16 08:56:11;;;;;;;8.90;3.30;;;11.50;99.90;;;;;;4989391;28;20222;-66
2021/10/16 08:58:39;;;;;;;7.80;2.43;;;11.60;99.90;;;;;;4994307;28;20253;-66
2021/10/16 09:01:07;;;;;;;5.63;2.10;;;11.60;99.90;;;;;;4994826;28;20223;-65
2021/10/16 09:03:40;;;;;;;7.27;2.20;;;11.70;99.90;;;;;;4996136;28;20249;-66
2021/10/16 09:06:13;;;;;;;5.70;2.40;;;11.70;99.90;;;;;;4991129;28;20234;-65
2021/10/16 09:08:51;;;;;;;8.97;2.57;;;11.70;99.90;;;;;;4958135;28;20698;-66
2021/10/16 09:11:22;;;;;;;7.77;2.07;;;11.70;99.90;;;;;;4950080;28;20242;-67
2021/10/16 09:13:53;;;;;;;5.93;2.03;;;11.70;99.90;;;;;;4955399;28;20323;-66
2021/10/16 09:16:41;;;;;;;6.87;2.20;;;11.80;99.90;;;;;;4951712;28;20251;-66
2021/10/16 09:19:15;;;;;;;8.03;2.30;;;11.80;99.90;;;;;;4948189;28;20259;-65
2021/10/16 09:21:47;;;;;;;7.07;2.40;;;11.90;99.90;;;;;;4949843;28;21296;-66
2021/10/16 09:24:20;;;;;;;6.30;1.87;;;12.00;99.90;;;;;;4949734;28;20311;-66
2021/10/16 09:26:50;;;;;;;7.07;2.27;;;12.00;99.90;;;;;;4943112;28;20252;-66
2021/10/16 09:29:20;;;;;;;7.83;2.77;;;12.10;99.90;;;;;;4944675;28;20327;-65
2021/10/16 09:31:51;;;;;;;6.60;2.17;;;12.20;99.90;;;;;;4958664;28;20335;-66
2021/10/16 09:34:25;;;;;;;7.43;2.17;;;12.30;99.90;;;;;;4963805;28;20248;-66
2021/10/16 09:37:01;;;;;;;8.20;2.63;;;12.30;99.90;;;;;;4950709;28;20264;-65
2021/10/16 09:39:31;;;;;;;8.27;2.00;;;12.30;99.90;;;;;;4941362;28;20232;-66
2021/10/16 09:42:00;;;;;;;7.70;2.40;;;12.30;99.90;;;;;;4949433;28;20250;-66
2021/10/16 09:44:30;;;;;;;7.97;2.27;;;12.40;99.90;;;;;;4962366;28;20621;-65
2021/10/16 09:47:03;;;;;;;7.40;2.40;;;12.40;99.90;;;;;;4954577;28;20265;-65
2021/10/16 09:49:33;;;;;;;5.67;2.10;;;12.40;99.90;;;;;;4947228;28;20577;-65
2021/10/16 09:52:04;;;;;;;5.40;2.50;;;12.40;99.90;;;;;;4939548;28;20288;-66
2021/10/16 09:54:39;;;;;;;7.67;2.50;;;12.40;99.90;;;;;;4942725;28;20238;-65
2021/10/16 09:57:10;;;;;;;7.83;2.03;;;12.50;99.90;;;;;;4943451;28;20365;-65
2021/10/16 09:59:42;;;;;;;6.80;2.00;;;12.50;99.90;;;;;;4939580;28;20241;-65
2021/10/16 10:02:15;;;;;;;5.47;2.20;;;12.50;99.90;;;;;;4936857;28;21450;-66
2021/10/16 10:04:47;;;;;;;5.73;2.10;;;12.60;99.90;;;;;;4940285;28;20240;-66
2021/10/16 10:07:19;;;;;;;5.30;2.13;;;12.70;99.90;;;;;;4937258;28;20798;-65
2021/10/16 10:09:49;;;;;;;6.73;2.20;;;12.80;99.90;;;;;;4939073;28;20248;-66
2021/10/16 10:12:18;;;;;;;7.70;2.03;;;12.90;99.90;;;;;;4936804;28;20721;-66
2021/10/16 10:14:48;;;;;;;6.80;1.97;;;12.90;99.90;;;;;;4939590;28;20241;-66
2021/10/16 10:17:19;;;;;;;5.57;1.83;;;13.00;99.90;;;;;;4940212;28;20367;-66
2021/10/16 10:19:52;;;;;;;7.80;2.33;;;13.20;99.90;;;;;;4938790;28;20244;-66
2021/10/16 10:22:21;;;;;;;5.10;1.93;;;13.30;99.90;;;;;;4937346;28;20253;-65
2021/10/16 10:24:52;;;;;;;5.77;1.90;;;13.30;99.90;;;;;;4939015;28;20255;-66
2021/10/16 10:27:22;;;;;;;5.27;1.77;;;13.30;99.90;;;;;;4940430;28;20273;-66
2021/10/16 10:29:52;;;;;;;6.17;2.10;;;13.40;99.90;;;;;;4938269;28;20240;-66
2021/10/16 10:32:22;;;;;;;5.30;1.90;;;13.50;99.90;;;;;;4936529;28;20311;-66
2021/10/16 10:34:56;;;;;;;5.73;2.00;;;13.60;99.90;;;;;;4943030;28;20320;-66
2021/10/16 10:37:37;;;;;;;7.33;2.10;;;13.60;99.90;;;;;;4942557;28;20336;-66
2021/10/16 10:40:20;;;;;;;5.27;1.77;;;13.80;99.90;;;;;;4951608;28;20694;-66
2021/10/16 10:42:56;;;;;;;7.43;2.10;;;13.90;99.90;;;;;;4942499;28;20411;-66
2021/10/16 10:45:42;;;;;;;6.73;1.87;;;14.10;99.90;;;;;;4938251;28;20242;-66
2021/10/16 10:48:19;;;;;;;7.13;2.47;;;14.10;99.90;;;;;;4936897;28;20720;-66
2021/10/16 10:51:01;;;;;;;6.43;1.90;;;14.30;99.90;;;;;;4938952;28;20717;-66
2021/10/16 10:53:32;;;;;;;4.43;2.00;;;14.30;99.90;;;;;;4938335;28;20682;-65
2021/10/16 10:56:03;;;;;;;5.07;1.77;;;14.30;99.90;;;;;;4938390;28;20242;-66
2021/10/16 10:58:58;;;;;;;6.30;1.90;;;14.10;99.90;;;;;;4935718;28;20289;-66
2021/10/16 11:01:50;;;;;;;8.30;2.00;;;14.20;99.90;;;;;;4938545;28;20732;-66
2021/10/16 11:04:51;;;;;;;6.00;2.00;;;14.20;99.90;;;;;;4938132;28;20761;-66
2021/10/16 11:07:44;;;;;;;9.47;2.13;;;14.10;99.90;;;;;;4900552;28;20245;-65
2021/10/16 11:10:13;;;;;;;5.90;2.20;;;14.00;99.90;;;;;;4937666;28;20756;-66
2021/10/16 11:12:45;;;;;;;5.07;1.67;;;14.00;99.90;;;;;;4938238;28;20249;-66
2021/10/16 11:15:14;;;;;;;5.83;1.87;;;14.00;99.90;;;;;;4939193;28;20337;-66
2021/10/16 11:17:44;;;;;;;6.97;2.00;;;14.00;99.90;;;;;;4937614;28;20725;-66
2021/10/16 11:20:16;;;;;;;9.23;2.10;;;14.00;99.90;;;;;;4943126;28;20246;-66
2021/10/16 11:22:50;;;;;;;5.40;2.10;;;14.00;99.90;;;;;;4944119;28;20736;-66
2021/10/16 11:25:21;;;;;;;6.03;1.83;;;13.80;99.90;;;;;;4942503;28;20464;-66
2021/10/16 11:28:05;;;;;;;4.93;1.90;;;14.10;99.90;;;;;;4947683;28;20332;-66
2021/10/16 11:30:34;;;;;;;7.10;2.03;;;14.40;99.90;;;;;;4953948;28;20226;-66
2021/10/16 11:33:04;;;;;;;7.10;1.93;;;14.40;99.90;;;;;;4950354;28;20245;-66
2021/10/16 11:35:32;;;;;;;7.53;2.20;;;14.40;99.90;;;;;;4952791;28;20329;-66
2021/10/16 11:38:00;;;;;;;7.53;2.10;;;14.40;99.90;;;;;;4954088;28;20634;-66
2021/10/16 11:40:31;;;;;;;4.97;1.60;;;14.30;99.90;;;;;;4953354;28;20238;-66
2021/10/16 11:43:02;;;;;;;4.90;1.80;;;14.30;99.90;;;;;;4954232;28;20518;-66
2021/10/16 11:45:33;;;;;;;6.43;1.80;;;14.30;99.90;;;;;;4947825;28;20330;-66
2021/10/16 11:48:04;;;;;;;4.33;1.87;;;14.40;99.90;;;;;;4942083;28;20319;-66
2021/10/16 11:50:34;;;;;;;7.03;2.00;;;14.40;99.90;;;;;;4945576;28;20609;-66
2021/10/16 11:53:08;;;;;;;4.30;1.87;;;14.40;99.90;;;;;;4949167;28;20243;-65
2021/10/16 11:55:37;;;;;;;5.57;1.57;;;14.40;99.90;;;;;;4944402;28;20284;-66
2021/10/16 11:58:06;;;;;;;5.63;1.93;;;14.40;99.90;;;;;;4951188;28;20431;-66
2021/10/16 12:00:37;;;;;;;6.23;1.90;;;14.40;99.90;;;;;;4958575;28;20269;-66
2021/10/16 12:03:10;;;;;;;6.27;2.03;;;14.30;99.90;;;;;;4944878;28;20232;-66
2021/10/16 12:05:44;;;;;;;4.57;1.70;;;14.30;99.90;;;;;;4945613;28;20244;-65
2021/10/16 12:08:20;;;;;;;5.17;1.90;;;14.20;99.90;;;;;;4979687;28;20279;-66
2021/10/16 12:10:51;;;;;;;4.10;1.60;;;14.20;99.90;;;;;;4979552;28;20255;-66
2021/10/16 12:13:34;;;;;;;4.60;1.67;;;14.30;99.90;;;;;;4992190;28;20251;-66
2021/10/16 12:16:13;;;;;;;4.57;1.60;;;14.20;99.90;;;;;;4988998;28;20269;-66
2021/10/16 12:18:53;;;;;;;4.97;1.80;;;14.20;99.90;;;;;;4992093;28;20257;-66
2021/10/16 12:21:29;;;;;;;4.10;1.60;;;14.20;99.90;;;;;;4985564;28;20241;-66
2021/10/16 12:23:58;;;;;;;5.77;1.60;;;14.20;99.90;;;;;;4990974;28;20241;-66
2021/10/16 12:26:29;;;;;;;5.60;1.70;;;14.20;99.90;;;;;;4993804;28;20728;-66
2021/10/16 12:28:59;;;;;;;6.77;1.70;;;14.10;99.90;;;;;;4995299;28;20285;-66
2021/10/16 12:31:29;;;;;;;6.17;1.70;;;13.90;99.90;;;;;;4995516;28;20236;-65
2021/10/16 12:33:59;;;;;;;4.93;1.50;;;14.00;99.90;;;;;;4985372;28;20248;-66
2021/10/16 12:36:30;;;;;;;5.03;1.70;;;13.90;99.90;;;;;;4988046;28;20228;-66
2021/10/16 12:38:59;;;;;;;4.13;1.63;;;13.90;99.90;;;;;;4985640;28;20599;-66
2021/10/16 12:41:36;;;;;;;6.80;1.80;;;13.90;99.90;;;;;;4985643;28;20318;-66
2021/10/16 12:44:19;;;;;;;6.00;1.60;;;13.90;99.90;;;;;;4983841;28;20237;-66
2021/10/16 12:46:50;;;;;;;4.77;1.70;;;13.90;99.90;;;;;;4981679;28;20269;-66
2021/10/16 12:49:30;;;;;;;5.27;1.70;;;13.90;99.90;;;;;;4984674;28;20241;-66
2021/10/16 12:52:00;;;;;;;5.57;1.93;;;13.90;99.90;;;;;;4985064;28;20288;-66
2021/10/16 12:54:37;;;;;;;6.27;1.60;;;13.90;99.90;;;;;;4984541;28;20257;-66
2021/10/16 12:57:07;;;;;;;5.20;2.00;;;13.80;99.90;;;;;;4984036;28;20339;-66
2021/10/16 12:59:36;;;;;;;5.00;1.70;;;13.80;99.90;;;;;;4982562;28;20289;-66
2021/10/16 13:02:06;;;;;;;6.60;1.80;;;13.80;99.90;;;;;;4984068;28;20564;-66
2021/10/16 13:04:42;;;;;;;5.57;2.07;;;13.70;99.90;;;;;;4980218;28;20713;-66
2021/10/16 13:07:10;;;;;;;5.17;1.93;;;13.70;99.90;;;;;;4980521;28;20707;-66
2021/10/16 13:09:38;;;;;;;5.40;1.80;;;13.70;99.90;;;;;;4987854;28;20244;-66
2021/10/16 13:12:07;;;;;;;3.37;1.63;;;13.60;99.90;;;;;;4988144;28;20626;-66
2021/10/16 13:14:35;;;;;;;7.53;2.07;;;13.60;99.90;;;;;;4990548;28;20260;-66